createdAt,value
2023-03-16T00:01:03.883Z,1.00
2023-03-16T00:03:32.245Z,1.00
2023-03-16T00:06:00.451Z,1.00
2023-03-16T00:08:28.614Z,77.00
2023-03-16T00:10:56.652Z,99.30
2023-03-16T00:13:26.416Z,99.90
2023-03-16T00:15:56.423Z,99.90
2023-03-16T00:18:27.223Z,99.90
2023-03-16T00:20:58.082Z,99.90
2023-03-16T00:23:28.075Z,99.90
2023-03-16T00:25:56.667Z,99.90
2023-03-16T00:28:27.416Z,99.90
2023-03-16T00:30:58.920Z,99.90
2023-03-16T00:33:26.977Z,99.90
2023-03-16T00:36:02.193Z,99.90
2023-03-16T00:38:32.189Z,99.90
2023-03-16T00:41:00.239Z,99.90
2023-03-16T00:43:29.609Z,90.20
2023-03-16T00:46:06.579Z,99.90
2023-03-16T00:48:35.488Z,99.90
2023-03-16T00:51:04.363Z,99.90
2023-03-16T00:53:33.324Z,90.10
2023-03-16T00:56:04.221Z,78.30
2023-03-16T00:58:35.740Z,56.00
2023-03-16T01:01:03.912Z,24.70
2023-03-16T01:03:31.991Z,19.50
2023-03-16T01:06:04.542Z,76.10
2023-03-16T01:08:33.111Z,91.90
2023-03-16T01:11:05.065Z,75.90
2023-03-16T01:13:34.867Z,68.30
2023-03-16T01:16:03.942Z,75.50
2023-03-16T01:18:34.160Z,74.80
2023-03-16T01:21:03.503Z,1.00
2023-03-16T01:23:34.383Z,28.10
2023-03-16T01:26:02.421Z,87.30
2023-03-16T01:28:32.682Z,78.80
2023-03-16T01:31:03.848Z,65.70
2023-03-16T01:33:33.834Z,64.00
2023-03-16T01:36:04.082Z,65.80
2023-03-16T01:38:40.284Z,76.20
2023-03-16T01:41:08.876Z,92.30
2023-03-16T01:43:39.214Z,99.90
2023-03-16T01:46:21.846Z,96.20
2023-03-16T01:49:06.896Z,90.30
2023-03-16T01:51:39.385Z,95.90
2023-03-16T01:54:14.530Z,91.60
2023-03-16T01:56:47.241Z,91.00
2023-03-16T01:59:17.910Z,94.90
2023-03-16T02:01:52.498Z,95.90
2023-03-16T02:04:45.089Z,99.90
2023-03-16T02:07:19.005Z,94.70
2023-03-16T02:09:51.693Z,99.90
2023-03-16T02:12:21.386Z,99.90
2023-03-16T02:14:53.984Z,99.90
2023-03-16T02:17:27.751Z,99.90
2023-03-16T02:20:13.968Z,99.90
2023-03-16T02:22:45.320Z,99.90
2023-03-16T02:25:15.251Z,99.90
2023-03-16T02:27:49.498Z,99.90
2023-03-16T02:30:21.204Z,99.90
2023-03-16T02:32:59.777Z,99.90
2023-03-16T02:35:27.996Z,99.90
2023-03-16T02:37:56.215Z,99.90
2023-03-16T02:40:32.508Z,99.90
2023-03-16T02:43:07.743Z,99.90
2023-03-16T02:45:45.461Z,99.90
2023-03-16T02:48:19.084Z,99.90
2023-03-16T02:50:49.124Z,99.90
2023-03-16T02:53:17.744Z,99.90
2023-03-16T02:55:46.464Z,99.90
2023-03-16T02:58:15.357Z,99.90
2023-03-16T03:00:45.765Z,99.20
2023-03-16T03:03:16.926Z,99.90
2023-03-16T03:05:45.015Z,99.90
2023-03-16T03:08:13.709Z,99.90
2023-03-16T03:10:42.040Z,1.00
2023-03-16T03:13:10.962Z,29.50
2023-03-16T03:15:40.317Z,1.00
2023-03-16T03:18:14.548Z,93.20
2023-03-16T03:20:43.090Z,99.90
2023-03-16T03:23:11.697Z,83.10
2023-03-16T03:25:39.798Z,91.00
2023-03-16T03:28:08.392Z,65.80
2023-03-16T03:30:37.198Z,1.00
2023-03-16T03:33:06.302Z,1.00
2023-03-16T03:35:35.837Z,25.90
2023-03-16T03:38:03.983Z,39.70
2023-03-16T03:40:32.264Z,10.70
2023-03-16T03:43:03.750Z,1.00
2023-03-16T03:45:34.432Z,99.90
2023-03-16T03:48:02.894Z,99.90
2023-03-16T03:50:30.978Z,99.90
2023-03-16T03:53:18.403Z,99.90
2023-03-16T03:56:09.170Z,99.90
2023-03-16T03:58:38.770Z,90.10
2023-03-16T04:01:07.332Z,90.50
2023-03-16T04:03:35.739Z,99.90
2023-03-16T04:06:03.897Z,99.30
2023-03-16T04:08:33.932Z,99.90
2023-03-16T04:11:02.041Z,56.30
2023-03-16T04:13:30.170Z,49.80
2023-03-16T04:15:59.156Z,99.90
2023-03-16T04:18:38.520Z,99.90
2023-03-16T04:21:08.767Z,93.30
2023-03-16T04:23:38.302Z,72.00
2023-03-16T04:26:06.608Z,92.00
2023-03-16T04:28:34.786Z,99.90
2023-03-16T04:31:05.270Z,99.90
2023-03-16T04:33:39.241Z,99.90
2023-03-16T04:36:09.173Z,99.90
2023-03-16T04:38:40.665Z,87.80
2023-03-16T04:41:11.293Z,24.00
2023-03-16T04:43:45.787Z,20.00
2023-03-16T04:46:26.592Z,20.10
2023-03-16T04:48:58.510Z,83.40
2023-03-16T04:51:29.013Z,27.10
2023-03-16T04:54:06.585Z,15.20
2023-03-16T04:56:37.045Z,1.00
2023-03-16T04:59:10.768Z,1.00
2023-03-16T05:02:04.070Z,1.00
2023-03-16T05:04:32.081Z,1.00
2023-03-16T05:07:00.452Z,1.00
2023-03-16T05:09:35.516Z,1.00
2023-03-16T05:12:03.983Z,1.00
2023-03-16T05:14:36.006Z,1.00
2023-03-16T05:17:20.758Z,12.10
2023-03-16T05:19:50.139Z,96.10
2023-03-16T05:22:20.268Z,99.90
2023-03-16T05:25:24.850Z,84.40
2023-03-16T05:27:55.605Z,49.70
2023-03-16T05:30:32.258Z,85.60
2023-03-16T05:33:04.361Z,99.90
2023-03-16T05:35:32.968Z,99.90
2023-03-16T05:38:05.914Z,99.90
2023-03-16T05:40:38.217Z,99.90
2023-03-16T05:43:19.317Z,99.90
2023-03-16T05:45:51.631Z,99.90
2023-03-16T05:48:21.195Z,99.90
2023-03-16T05:50:54.555Z,99.90
2023-03-16T05:53:29.384Z,99.90
2023-03-16T05:56:05.885Z,99.90
2023-03-16T05:58:36.268Z,99.90
2023-03-16T06:01:12.770Z,53.90
2023-03-16T06:03:42.791Z,1.00
2023-03-16T06:06:16.825Z,1.00
2023-03-16T06:08:54.517Z,1.00
2023-03-16T06:11:26.234Z,1.00
2023-03-16T06:13:57.712Z,1.00
2023-03-16T06:16:25.920Z,1.00
2023-03-16T06:18:54.151Z,1.00
2023-03-16T06:21:22.276Z,1.00
2023-03-16T06:23:52.669Z,1.00
2023-03-16T06:26:21.948Z,1.00
2023-03-16T06:28:52.218Z,1.00
2023-03-16T06:31:21.143Z,1.00
2023-03-16T06:33:49.229Z,1.00
2023-03-16T06:36:17.385Z,99.90
2023-03-16T06:38:49.458Z,99.90
2023-03-16T06:41:31.159Z,99.90
2023-03-16T06:44:01.207Z,99.90
2023-03-16T06:46:29.721Z,99.90
2023-03-16T06:49:00.933Z,99.90
2023-03-16T06:51:29.268Z,99.90
2023-03-16T06:53:57.709Z,99.90
2023-03-16T06:56:27.887Z,99.90
2023-03-16T06:58:56.985Z,99.90
2023-03-16T07:01:27.275Z,99.90
2023-03-16T07:03:55.662Z,99.90
2023-03-16T07:06:28.372Z,99.90
2023-03-16T07:08:56.316Z,99.90
2023-03-16T07:11:25.304Z,99.90
2023-03-16T07:13:53.364Z,99.90
2023-03-16T07:16:22.993Z,99.90
2023-03-16T07:18:52.431Z,99.90
2023-03-16T07:21:21.583Z,99.90
2023-03-16T07:23:49.790Z,99.90
2023-03-16T07:26:23.002Z,99.90
2023-03-16T07:28:57.975Z,99.90
2023-03-16T07:31:26.626Z,99.90
2023-03-16T07:33:58.303Z,99.90
2023-03-16T07:36:34.841Z,99.90
2023-03-16T07:39:03.917Z,99.90
2023-03-16T07:41:32.849Z,99.90
2023-03-16T07:44:15.509Z,99.90
2023-03-16T07:46:47.773Z,99.90
2023-03-16T07:49:17.889Z,18.00
2023-03-16T07:51:48.194Z,99.90
2023-03-16T07:54:19.251Z,56.70
2023-03-16T07:56:49.508Z,64.50
2023-03-16T07:59:28.734Z,99.90
2023-03-16T08:01:57.370Z,99.90
2023-03-16T08:04:26.913Z,99.90
2023-03-16T08:07:00.147Z,99.90
2023-03-16T08:09:35.749Z,99.90
2023-03-16T08:12:07.363Z,99.90
2023-03-16T08:14:37.442Z,99.90
2023-03-16T08:17:14.487Z,99.90
2023-03-16T08:19:44.514Z,77.40
2023-03-16T08:22:12.831Z,36.70
2023-03-16T08:24:44.733Z,1.00
2023-03-16T08:27:16.071Z,1.00
2023-03-16T08:29:47.832Z,1.00
2023-03-16T08:32:19.304Z,1.00
2023-03-16T08:34:50.063Z,1.00
2023-03-16T08:37:19.100Z,1.00
2023-03-16T08:39:51.367Z,1.00
2023-03-16T08:42:20.264Z,1.00
2023-03-16T08:44:55.181Z,1.00
2023-03-16T08:47:24.462Z,1.00
2023-03-16T08:49:53.855Z,1.00
2023-03-16T08:52:23.133Z,1.00
2023-03-16T08:55:02.551Z,1.00
2023-03-16T08:57:31.739Z,1.00
2023-03-16T08:59:59.779Z,1.00
2023-03-16T09:04:58.928Z,1.00
2023-03-16T09:07:28.199Z,1.00
2023-03-16T09:09:56.164Z,1.00
2023-03-16T09:12:24.183Z,1.00
2023-03-16T09:14:52.154Z,1.00
2023-03-16T09:17:20.893Z,1.00
2023-03-16T09:19:51.788Z,1.00
2023-03-16T09:22:21.895Z,1.00
2023-03-16T09:24:51.215Z,1.00
2023-03-16T09:27:20.505Z,1.00
2023-03-16T09:29:49.545Z,1.00
2023-03-16T09:32:17.616Z,99.90
2023-03-16T09:34:45.860Z,99.90
2023-03-16T09:37:14.523Z,99.90
2023-03-16T09:39:43.833Z,99.90
2023-03-16T09:42:18.295Z,99.90
2023-03-16T09:44:59.775Z,99.90
2023-03-16T09:47:30.305Z,99.90
2023-03-16T09:50:03.258Z,99.90
2023-03-16T09:52:41.410Z,99.90
2023-03-16T09:55:32.169Z,99.90
2023-03-16T09:58:37.750Z,99.90
2023-03-16T10:01:39.691Z,99.90
2023-03-16T10:04:48.567Z,99.90
2023-03-16T10:07:38.133Z,99.90
2023-03-16T10:16:10.915Z,99.90
2023-03-16T10:18:44.953Z,99.90
2023-03-16T10:21:15.550Z,99.90
2023-03-16T10:23:44.525Z,99.90
2023-03-16T10:26:18.808Z,99.90
2023-03-16T10:28:47.988Z,99.90
2023-03-16T10:31:21.217Z,99.90
2023-03-16T10:33:50.513Z,99.90
2023-03-16T10:36:28.292Z,99.90
2023-03-16T10:38:59.709Z,99.90
2023-03-16T10:41:32.901Z,99.90
2023-03-16T10:44:07.354Z,99.90
2023-03-16T10:46:40.652Z,99.90
2023-03-16T10:49:21.822Z,99.90
2023-03-16T10:51:50.207Z,99.90
2023-03-16T10:54:24.852Z,99.90
2023-03-16T10:56:54.197Z,99.90
2023-03-16T10:59:34.330Z,99.90
2023-03-16T11:02:05.382Z,99.90
2023-03-16T11:04:34.018Z,99.90
2023-03-16T11:07:02.110Z,99.90
2023-03-16T11:09:34.313Z,99.90
2023-03-16T11:12:15.353Z,99.90
2023-03-16T11:14:45.546Z,99.90
2023-03-16T11:17:17.935Z,99.90
2023-03-16T11:19:54.410Z,99.90
2023-03-16T11:22:25.226Z,99.90
2023-03-16T11:24:57.545Z,99.90
2023-03-16T11:27:36.154Z,99.90
2023-03-16T11:30:11.228Z,99.90
2023-03-16T11:32:41.481Z,99.90
2023-03-16T11:35:19.373Z,99.90
2023-03-16T11:38:07.062Z,99.90
2023-03-16T11:40:45.371Z,99.90
2023-03-16T11:43:41.742Z,99.90
2023-03-16T11:46:15.768Z,99.90
2023-03-16T11:48:49.486Z,99.90
2023-03-16T11:51:31.181Z,99.90
2023-03-16T11:54:12.065Z,99.90
2023-03-16T11:56:46.121Z,96.10
2023-03-16T12:00:00.641Z,84.80
2023-03-16T12:02:55.319Z,81.90
2023-03-16T12:05:48.712Z,76.00
2023-03-16T12:08:31.529Z,76.20
2023-03-16T12:11:04.473Z,81.70
2023-03-16T12:13:42.154Z,72.50
2023-03-16T12:16:17.397Z,62.80
2023-03-16T12:18:48.991Z,58.90
2023-03-16T12:21:22.954Z,35.20
2023-03-16T12:23:53.375Z,41.60
2023-03-16T12:26:24.401Z,33.50
2023-03-16T12:28:55.283Z,26.10
2023-03-16T12:31:34.588Z,27.80
2023-03-16T12:34:20.198Z,15.40
2023-03-16T12:37:14.542Z,5.60
2023-03-16T12:40:11.679Z,1.00
2023-03-16T12:42:55.298Z,1.00
2023-03-16T12:45:32.778Z,1.00
2023-03-16T12:48:11.386Z,1.00
2023-03-16T12:50:50.311Z,1.00
2023-03-16T12:53:43.372Z,1.00
2023-03-16T12:56:13.163Z,1.00
2023-03-16T12:58:46.950Z,1.00
2023-03-16T13:01:17.377Z,1.00
2023-03-16T13:03:49.511Z,1.00
2023-03-16T13:06:24.819Z,1.00
2023-03-16T13:08:57.768Z,1.00
2023-03-16T13:11:25.799Z,1.00
2023-03-16T13:14:08.306Z,1.00
2023-03-16T13:16:38.322Z,1.00
2023-03-16T13:19:27.416Z,1.00
2023-03-16T13:22:04.304Z,1.00
2023-03-16T13:24:40.856Z,1.00
2023-03-16T13:27:23.227Z,1.00
2023-03-16T13:29:56.744Z,1.00
2023-03-16T13:32:28.566Z,1.00
2023-03-16T13:35:02.337Z,1.00
2023-03-16T13:37:31.588Z,1.00
2023-03-16T13:40:04.165Z,1.00
2023-03-16T13:42:33.561Z,1.00
2023-03-16T13:47:37.881Z,1.00
2023-03-16T13:50:07.842Z,1.00
2023-03-16T13:52:37.424Z,1.00
2023-03-16T13:55:15.379Z,1.00
2023-03-16T13:57:45.236Z,1.00
2023-03-16T14:00:20.070Z,1.00
2023-03-16T14:02:50.680Z,1.00
2023-03-16T14:05:22.589Z,1.00
2023-03-16T14:07:52.132Z,1.00
2023-03-16T14:10:20.858Z,1.00
2023-03-16T14:12:53.121Z,1.00
2023-03-16T14:15:23.788Z,1.00
2023-03-16T14:17:52.016Z,1.00
2023-03-16T14:20:24.130Z,1.00
2023-03-16T14:22:53.258Z,1.00
2023-03-16T14:25:23.861Z,1.00
2023-03-16T14:28:00.257Z,1.00
2023-03-16T14:30:30.339Z,1.00
2023-03-16T14:33:00.651Z,1.00
2023-03-16T14:35:33.076Z,1.00
2023-03-16T14:38:22.611Z,1.00
2023-03-16T14:40:56.075Z,1.00
2023-03-16T14:43:29.769Z,1.00
2023-03-16T14:46:00.209Z,1.00
2023-03-16T14:48:30.258Z,1.00
2023-03-16T14:51:02.237Z,1.00
2023-03-16T14:53:31.710Z,1.00
2023-03-16T14:56:00.987Z,1.00
2023-03-16T14:58:28.970Z,1.00
2023-03-16T15:00:57.952Z,1.00
2023-03-16T15:03:34.038Z,1.00
2023-03-16T15:06:03.916Z,1.00
2023-03-16T15:08:36.993Z,1.00
2023-03-16T15:11:07.654Z,1.00
2023-03-16T15:13:52.561Z,1.00
2023-03-16T15:16:22.015Z,1.00
2023-03-16T15:18:51.829Z,1.00
2023-03-16T15:21:24.207Z,1.00
2023-03-16T15:23:52.551Z,1.00
2023-03-16T15:26:26.208Z,1.00
2023-03-16T15:28:54.707Z,1.00
2023-03-16T15:31:23.198Z,1.00
2023-03-16T15:33:51.455Z,1.00
2023-03-16T15:36:22.599Z,1.00
2023-03-16T15:38:52.499Z,1.00
2023-03-16T15:41:21.292Z,1.00
2023-03-16T15:43:51.985Z,1.00
2023-03-16T15:46:20.774Z,1.00
2023-03-16T15:48:48.806Z,1.00
2023-03-16T15:51:24.036Z,1.00
2023-03-16T15:53:54.653Z,1.00
2023-03-16T15:56:29.804Z,1.00
2023-03-16T15:59:01.201Z,1.00
2023-03-16T16:01:32.013Z,1.00
2023-03-16T16:04:00.247Z,1.00
2023-03-16T16:06:30.452Z,1.00
2023-03-16T16:08:58.769Z,1.00
2023-03-16T16:11:29.138Z,1.00
2023-03-16T16:13:58.649Z,1.00
2023-03-16T16:16:29.825Z,1.00
2023-03-16T16:18:58.550Z,1.00
2023-03-16T16:21:31.430Z,1.00
2023-03-16T16:24:01.265Z,1.00
2023-03-16T16:26:48.231Z,1.00
2023-03-16T16:29:22.055Z,1.00
2023-03-16T16:31:51.453Z,1.00
2023-03-16T16:34:24.228Z,1.00
2023-03-16T16:36:53.997Z,1.00
2023-03-16T16:39:22.134Z,1.00
2023-03-16T16:41:51.566Z,1.00
2023-03-16T16:44:21.880Z,1.00
2023-03-16T16:46:51.590Z,1.00
2023-03-16T16:49:22.526Z,1.00
2023-03-16T16:51:51.475Z,1.00
2023-03-16T16:54:22.732Z,1.00
2023-03-16T16:56:53.218Z,1.00
2023-03-16T16:59:23.733Z,1.00
2023-03-16T17:01:53.928Z,1.00
2023-03-16T17:04:24.676Z,1.00
2023-03-16T17:06:55.504Z,1.00
2023-03-16T17:09:26.037Z,1.00
2023-03-16T17:11:56.179Z,1.00
2023-03-16T17:14:27.571Z,1.00
2023-03-16T17:16:56.978Z,1.00
2023-03-16T17:19:27.302Z,1.00
2023-03-16T17:21:57.153Z,1.00
2023-03-16T17:24:28.686Z,1.00
2023-03-16T17:27:00.041Z,1.00
2023-03-16T17:29:31.435Z,1.00
2023-03-16T17:32:02.261Z,1.00
2023-03-16T17:34:33.145Z,1.00
2023-03-16T17:37:01.789Z,1.00
2023-03-16T17:39:33.861Z,1.00
2023-03-16T17:42:03.779Z,1.00
2023-03-16T17:44:34.415Z,1.00
2023-03-16T17:47:02.569Z,1.00
2023-03-16T17:49:31.889Z,1.00
2023-03-16T17:51:59.921Z,1.00
2023-03-16T17:54:28.330Z,1.00
2023-03-16T17:56:57.896Z,1.00
2023-03-16T17:59:25.904Z,1.00
2023-03-16T18:01:54.157Z,1.00
2023-03-16T18:04:24.099Z,1.00
2023-03-16T18:06:52.841Z,1.00
2023-03-16T18:09:21.887Z,1.00
2023-03-16T18:11:52.208Z,1.00
2023-03-16T18:14:28.135Z,1.00
2023-03-16T18:16:56.323Z,1.00
2023-03-16T18:19:25.802Z,1.00
2023-03-16T18:21:54.742Z,1.00
2023-03-16T18:24:26.504Z,1.00
2023-03-16T18:26:55.224Z,1.00
2023-03-16T18:29:24.701Z,1.00
2023-03-16T18:31:56.120Z,1.00
2023-03-16T18:34:26.895Z,1.00
2023-03-16T18:36:59.684Z,1.00
2023-03-16T18:39:27.939Z,1.00
2023-03-16T18:41:56.100Z,1.00
2023-03-16T18:44:26.808Z,1.00
2023-03-16T18:46:59.444Z,1.00
2023-03-16T18:49:32.473Z,1.00
2023-03-16T18:52:00.851Z,1.00
2023-03-16T18:54:31.760Z,1.00
2023-03-16T18:57:00.270Z,1.00
2023-03-16T18:59:29.696Z,1.00
2023-03-16T19:01:58.411Z,1.00
2023-03-16T19:04:29.242Z,1.00
2023-03-16T19:06:58.273Z,1.00
2023-03-16T19:09:28.775Z,1.00
2023-03-16T19:11:57.161Z,1.00
2023-03-16T19:14:26.941Z,1.00
2023-03-16T19:16:56.653Z,1.00
2023-03-16T19:19:25.556Z,1.00
2023-03-16T19:21:56.425Z,1.00
2023-03-16T19:24:26.730Z,1.00
2023-03-16T19:26:56.045Z,1.00
2023-03-16T19:29:30.883Z,1.00
2023-03-16T19:32:00.846Z,1.00
2023-03-16T19:34:29.368Z,1.00
2023-03-16T19:36:57.463Z,1.00
2023-03-16T19:39:25.973Z,1.00
2023-03-16T19:41:58.469Z,1.00
2023-03-16T19:44:28.351Z,1.00
2023-03-16T19:46:59.119Z,1.00
2023-03-16T19:49:29.380Z,1.00
2023-03-16T19:51:58.018Z,1.00
2023-03-16T19:54:27.662Z,1.00
2023-03-16T19:56:58.124Z,1.00
2023-03-16T19:59:34.277Z,1.00
2023-03-16T20:02:02.673Z,1.00
2023-03-16T20:04:32.334Z,1.00
2023-03-16T20:07:00.663Z,1.00
2023-03-16T20:09:28.781Z,1.00
2023-03-16T20:11:57.121Z,1.00
2023-03-16T20:14:30.173Z,1.00
2023-03-16T20:16:58.645Z,1.00
2023-03-16T20:19:26.734Z,1.00
2023-03-16T20:21:56.630Z,1.00
2023-03-16T20:24:24.862Z,1.00
2023-03-16T20:26:54.559Z,1.00
2023-03-16T20:29:29.766Z,7.40
2023-03-16T20:31:58.663Z,14.70
2023-03-16T20:34:28.548Z,11.60
2023-03-16T20:36:58.555Z,11.50
2023-03-16T20:39:27.807Z,17.90
2023-03-16T20:41:56.209Z,22.10
2023-03-16T20:44:25.575Z,29.70
2023-03-16T20:46:53.880Z,36.80
2023-03-16T20:49:34.035Z,42.10
2023-03-16T20:52:03.962Z,46.10
2023-03-16T20:54:32.146Z,43.00
2023-03-16T20:57:01.161Z,63.60
2023-03-16T20:59:30.228Z,33.80
2023-03-16T21:01:58.455Z,36.10
2023-03-16T21:04:28.707Z,49.70
2023-03-16T21:06:57.738Z,50.30
2023-03-16T21:09:27.695Z,63.70
2023-03-16T21:11:55.840Z,65.10
2023-03-16T21:14:25.555Z,71.60
2023-03-16T21:16:54.998Z,71.20
2023-03-16T21:19:24.816Z,89.00
2023-03-16T21:21:53.161Z,63.70
2023-03-16T21:24:21.876Z,67.00
2023-03-16T21:26:51.385Z,83.70
2023-03-16T21:29:21.820Z,83.10
2023-03-16T21:31:50.494Z,85.70
2023-03-16T21:34:27.209Z,88.90
2023-03-16T21:36:55.384Z,87.20
2023-03-16T21:39:25.217Z,90.80
2023-03-16T21:41:56.237Z,93.70
2023-03-16T21:44:24.321Z,93.90
2023-03-16T21:46:52.421Z,93.60
2023-03-16T21:49:20.854Z,95.70
2023-03-16T21:51:51.043Z,98.50
2023-03-16T21:54:20.335Z,99.40
2023-03-16T21:56:48.765Z,99.90
2023-03-16T21:59:18.263Z,99.90
2023-03-16T22:02:00.855Z,99.90
2023-03-16T22:04:30.269Z,99.90
2023-03-16T22:06:58.326Z,99.90
2023-03-16T22:09:29.952Z,99.90
2023-03-16T22:11:58.233Z,99.90
2023-03-16T22:14:28.137Z,99.90
2023-03-16T22:16:56.979Z,99.90
2023-03-16T22:19:26.305Z,99.90
2023-03-16T22:21:56.588Z,99.90
2023-03-16T22:24:27.898Z,99.90
2023-03-16T22:26:56.811Z,99.90
2023-03-16T22:29:28.515Z,99.90
2023-03-16T22:31:58.897Z,99.90
2023-03-16T22:34:31.263Z,99.90
2023-03-16T22:37:00.491Z,99.90
2023-03-16T22:39:29.571Z,99.90
2023-03-16T22:41:57.840Z,99.90
2023-03-16T22:44:27.265Z,99.90
2023-03-16T22:46:55.271Z,99.90
2023-03-16T22:49:27.044Z,99.90
2023-03-16T22:51:58.062Z,99.90
2023-03-16T22:54:29.403Z,99.90
2023-03-16T22:56:57.976Z,99.90
2023-03-16T22:59:28.745Z,99.90
2023-03-16T23:01:57.540Z,99.90
2023-03-16T23:04:29.915Z,99.90
2023-03-16T23:06:59.466Z,99.90
2023-03-16T23:09:27.576Z,99.90
2023-03-16T23:11:56.530Z,99.90
2023-03-16T23:14:29.023Z,99.90
2023-03-16T23:16:57.241Z,99.90
2023-03-16T23:19:27.964Z,99.90
2023-03-16T23:21:57.941Z,99.90
2023-03-16T23:24:26.328Z,99.90
2023-03-16T23:26:55.436Z,99.90
2023-03-16T23:29:24.776Z,99.90
2023-03-16T23:31:54.595Z,99.90
2023-03-16T23:34:24.406Z,99.90
2023-03-16T23:36:52.928Z,99.90
2023-03-16T23:39:21.187Z,99.90
2023-03-16T23:41:50.662Z,99.90
2023-03-16T23:44:20.883Z,99.90
2023-03-16T23:46:49.073Z,99.90
2023-03-16T23:49:22.316Z,99.90
2023-03-16T23:51:51.309Z,99.90
2023-03-16T23:54:20.890Z,99.90
2023-03-16T23:56:49.085Z,99.90
2023-03-16T23:59:17.392Z,99.90
